Latest Observation

42 Stations

15 Minute Data | America/Los_Angeles
as of 5/10/26 12:31 PM PDT
Station Date Time Temp (°F) RH (%) Dew Pt (°F) Wind Spd (mph) Wind Dir (°) Wind Gust (mph) Latest Rain (In) Daily Rain (In) Daily Min Temp (°F) Daily Max Temp (°F) Daily Max Wind (mph)
Elk Mt. Farm 5/10/26 1230 83.3   0.4 - - - - - - - 45.9   1.1 83.8   0.4 -
Upper Lake 5/10/26 1230 82.6   0.2 45   4 58.9   3.0 2.6 SSE | 156 7.1   0.7 0.00 0.00 45.9   1.2 83.3   0.5 7.1   1.6
Scotts Valley 5/10/26 1230 81.8   0.3 38   8 53.4   5.2 1.0 S | 177 3.9   1.9 0.00 0.00 41.3   0.6 82.2   0.1 6.4   0.4
Scotts Valley-South (Bella Vista) 5/10/26 1230 82.1   1.0 29   8 46.8   5.7 1.5 SSE | 161 3.6   1.9 0.00 0.00 45.5   0.0 83.1   1.2 5.7   0.2
Kelseyville 5/10/26 1230 81.6   1.7 37   5 52.8   2.0 5.2 NNE | 22 9.0   0.4 0.00 0.00 45.6   0.6 82.1   1.6 9.9   0.4
Kelseyville Remote 5/10/26 1230 81.2   0.6 34   3 50.4   1.8 - - - 0.00 0.00 46.6   0.9 81.8   0.7 -
Kelseyville (Clark Drive) 5/10/26 1230 82.9   1.3 - - - - - 0.00 0.00 44.9   0.2 83.6   0.8 -
Kelsey Bench (Oaklea) 5/10/26 1215 80.3   1.0 34   3 49.3   1.3 4.9 N | 7 8.5   0.5 0.00 0.00 48.5   0.4 80.8   0.8 8.9   0.0
Smith Lane (Kelseyville-South) 5/10/26 1230 83.0   0.0 37   1 54.0   0.5 3.5 N | 0 7.7   1.7 0.00 0.00 44.5   0.7 83.0   0.0 8.8   0.0
Bell Hill-West 5/10/26 1230 81.8   0.6 41   1 56.1   0.3 4.1 NNW | 335 7.8   2.4 0.00 0.00 46.7   0.5 82.5   1.6 8.1   2.0
High Valley Ridgeline (Brassfield) 5/10/26 1230 79.8   3.5 37   0 51.2   2.8 3.9 ENE | 74 8.2   3.3 0.00 0.00 62.1   1.5 80.4   3.5 11.7   0.2
Wight Way (Adobe Creek) 5/10/26 1200 83.6   0.6 33   3 51.5   1.6 1.1 E | 84 5.9   2.0 0.00 0.00 43.8   0.5 84.1   0.7 7.2   0.8
Ridgeline Top (Brassfield) 5/10/26 1230 80.3   2.2 - - - - - - - 60.8   0.3 81.3   2.1 -
Ridgeline Low (Brassfield) 5/10/26 1230 83.0   5.9 - - - - - - - 57.9   2.8 83.9   6.1 -
Long Valley (Shannon) 5/10/26 1230 86.2   1.0 39   1 58.5   0.4 1.8 SSE | 164 5.1   3.0 0.00 0.00 47.0   0.5 86.2   0.9 8.3   0.1
High Valley Winery 5/10/26 1230 82.5   2.7 36   1 52.6   2.9 3.0 SSE | 148 6.8   8.0 0.00 0.00 45.9   1.4 83.2   2.8 7.5   7.3
Round Mtn Rd. 5/10/26 1230 82.3   2.3 - - - - - - - 53.2   3.5 83.5   3.5 -
Circle O 5/10/26 1230 80.9   3.6 - - - - - - - 49.5   0.6 81.9   3.5 -
Robertsbridge Vineyards 5/10/26 1230 84.3   2.5 33   3 52.4   0.4 - - - - - 45.4   0.4 84.8   1.9 -
Urgency Vineyard 5/10/26 1230 81.6   2.2 37   8 53.1   4.1 3.3 NE | 41 6.9   2.5 0.00 0.00 48.9   4.1 82.1   1.7 9.2   0.2
Red Hills (Beckstoffer) 5/10/26 1230 83.5   1.0 39   6 56.0   5.2 - - - 0.00 0.00 45.7   3.9 84.1   1.0 -
Winters (Shannon) 5/10/26 1230 81.0   0.8 41   9 55.4   7.0 3.0 ESE | 105 8.9   0.7 0.00 0.00 41.9   0.2 81.2   0.8 8.9   3.2
Secret Pond (Shannon) 5/10/26 1230 81.0   0.5 38   7 53.1   6.0 2.4 SE | 126 6.6   1.3 0.00 0.00 48.8   1.8 81.5   0.6 8.4   3.2
Rolling Knolls (Shannon) 5/10/26 1230 83.3   2.2 41   2 57.0   3.2 1.2 NNE | 14 2.8   1.6 0.00 0.00 44.8   1.2 83.8   2.7 4.3   1.2
Lower Lake 5/10/26 1230 83.1   1.8 35   2 52.3   0.0 3.5 NE | 51 6.6   0.7 0.00 0.00 51.3   0.5 83.1   1.8 6.6   1.0
Adamson Ranch 5/10/26 1230 86.7   3.0 37   3 57.6   0.8 0.8 W | 263 4.8   1.8 0.00 0.00 45.3   1.2 86.7   2.8 5.5   0.2
Middletown (Diamond D) 5/10/26 1230 84.9   0.2 42   2 59.2   1.5 0.0 N | 0 0.0   5.4 0.00 0.00 46.5   2.7 85.4   0.5 6.9   1.2
Middletown-West (Domaine Helena) 5/10/26 1230 83.1   1.6 44   2 58.7   0.0 3.1 ENE | 59 8.5   5.6 0.00 0.00 42.1   2.9 83.7   0.4 8.5   5.6
Middletown-South 5/10/26 1230 83.4   1.1 35   5 53.1   2.5 3.9 NE | 49 7.1   5.5 0.00 0.00 47.2   1.9 84.4   1.0 8.0   4.6
Jim Davis (Langtry) 5/10/26 1230 83.4   1.1 44   2 59.3   0.4 2.5 NNE | 19 10.0   0.2 0.00 0.00 53.1   0.1 84.2   1.1 10.0   0.2
Napa Valley Basin 5/10/26 1230 83.7   1.1 50   7 62.8   3.4 3.7 SSE | 168 9.3   3.7 0.00 0.00 45.0   2.1 84.2   0.8 9.3   3.7
Lower Bohn 5/10/26 1230 83.7   0.2 47   4 61.2   2.4 3.3 W | 265 6.6   0.0 0.00 0.00 41.1   3.3 84.5   0.1 7.3   0.4
Upper Bohn-North 5/10/26 1230 83.6   0.0 44   7 59.2   4.9 3.0 SSE | 155 7.6   2.3 0.00 0.00 50.4   2.6 83.9   0.2 7.6   0.7
Snell Peak Blk#9 5/10/26 1230 82.9   0.4 44   6 58.6   3.7 2.0 SE | 142 6.6   0.1 0.00 0.00 53.4   2.4 83.6   0.4 7.1   0.6
Coyote Lake West 5/10/26 1230 83.0   1.3 47   6 60.8   2.6 2.5 SE | 125 6.6   0.1 0.00 0.00 50.7   3.2 83.0   1.3 8.8   1.5
Coyote Lake Northeast 5/10/26 1230 83.7   1.2 52   8 64.2   3.5 - - - - - 52.3   1.0 83.7   1.2 -
Coyote Lake East 5/10/26 1230 83.9   1.0 48   8 62.1   4.1 - - - - - 47.8   1.5 83.9   1.3 -
Morgan Valley 5/10/26 1230 78.2   0.1 56   11 61.1   6.1 4.0 S | 188 7.1   0.7 0.00 0.00 62.4   1.8 78.8   0.0 19.0   7.7
Mine Pit North 5/10/26 1230 82.2   2.5 46   2 59.5   1.1 2.1 SSW | 198 7.5   0.0 - - 56.5   0.1 83.2   1.3 8.2   5.2
Mine Pit South 5/10/26 1230 83.4   0.8 41   2 57.5   1.8 2.4 SE | 146 8.6   2.6 0.00 0.00 60.7   2.2 84.3   1.1 8.6   6.0
Cow Mountain 5/10/26 1230 73.1   3.9 - - 1.7 W | 280 6.1   10.3 0.00 0.00 59.5   4.6 75.4   5.3 18.8   1.3
Ukiah-SE (Ruddick) 5/10/26 1230 81.6   1.1 36   2 52.0   2.7 2.2 SSE | 155 5.2   1.5 0.00 0.00 45.4   0.4 82.2   0.9 7.4   0.6
Max     86.7 56 64.2 5.2 - 10.0 0.00 0.00 62.4 86.7 19.0
Avg     82.4 40 56.1 2.7 - 6.7 0.00 - - - -
Min     73.1 29 46.8 0.0 - 0.0 0.00 0.00 41.1 75.4 4.3